createdAt,value
2019-05-05T00:01:45.629Z,4.83
2019-05-05T00:04:24.360Z,4.83
2019-05-05T00:06:54.917Z,4.83
2019-05-05T00:09:25.223Z,4.83
2019-05-05T00:12:01.021Z,4.80
2019-05-05T00:14:40.864Z,4.81
2019-05-05T00:17:10.817Z,4.83
2019-05-05T00:19:39.994Z,4.81
2019-05-05T00:22:08.294Z,4.80
2019-05-05T00:24:36.595Z,4.82
2019-05-05T00:27:04.875Z,4.83
2019-05-05T00:29:34.707Z,4.85
2019-05-05T00:32:04.936Z,4.87
2019-05-05T00:34:34.978Z,4.89
2019-05-05T00:37:04.635Z,4.88
2019-05-05T00:39:34.455Z,4.88
2019-05-05T00:42:04.804Z,4.92
2019-05-05T00:44:35.185Z,4.92
2019-05-05T00:47:11.204Z,4.93
2019-05-05T00:49:46.432Z,4.92
2019-05-05T00:52:11.297Z,4.93
2019-05-05T00:54:39.637Z,4.92
2019-05-05T00:57:08.016Z,4.92
2019-05-05T00:59:36.351Z,4.90
2019-05-05T01:02:12.487Z,4.86
2019-05-05T01:05:00.317Z,4.83
2019-05-05T01:07:28.773Z,4.76
2019-05-05T01:09:57.231Z,4.75
2019-05-05T01:12:26.228Z,4.75
2019-05-05T01:14:55.281Z,4.75
2019-05-05T01:17:25.321Z,4.73
2019-05-05T01:20:03.369Z,4.70
2019-05-05T01:22:25.032Z,4.68
2019-05-05T01:24:55.459Z,4.68
2019-05-05T01:27:25.500Z,4.68
2019-05-05T01:29:54.613Z,4.64
2019-05-05T01:32:36.832Z,4.59
2019-05-05T01:35:06.512Z,4.56
2019-05-05T01:37:54.886Z,4.56
2019-05-05T01:40:30.476Z,4.50
2019-05-05T01:42:59.550Z,4.47
2019-05-05T01:45:27.840Z,4.46
2019-05-05T01:47:56.295Z,4.44
2019-05-05T01:50:24.935Z,4.41
2019-05-05T01:52:55.427Z,4.41
2019-05-05T01:55:25.200Z,4.40
2019-05-05T01:57:54.362Z,4.36
2019-05-05T02:00:22.829Z,4.32
2019-05-05T02:02:51.825Z,4.32
2019-05-05T02:05:21.773Z,4.30
2019-05-05T02:07:50.194Z,4.31
2019-05-05T02:10:18.609Z,4.32
2019-05-05T02:12:46.953Z,4.31
2019-05-05T02:15:15.376Z,4.34
2019-05-05T02:17:44.566Z,4.31
2019-05-05T02:20:34.249Z,4.30
2019-05-05T02:23:04.556Z,4.30
2019-05-05T02:25:34.592Z,4.28
2019-05-05T02:28:04.451Z,4.30
2019-05-05T02:30:46.719Z,4.32
2019-05-05T02:33:16.118Z,4.37
2019-05-05T02:35:45.860Z,4.43
2019-05-05T02:38:15.811Z,4.48
2019-05-05T02:40:45.431Z,4.54
2019-05-05T02:43:15.094Z,4.61
2019-05-05T02:45:48.691Z,4.68
2019-05-05T02:48:17.720Z,4.72
2019-05-05T02:51:01.833Z,4.74
2019-05-05T02:53:29.520Z,4.77
2019-05-05T02:56:04.202Z,4.79
2019-05-05T02:58:33.995Z,4.80
2019-05-05T03:01:20.984Z,4.80
2019-05-05T03:03:49.262Z,4.86
2019-05-05T03:06:17.545Z,4.94
2019-05-05T03:08:45.970Z,5.07
2019-05-05T03:11:14.503Z,5.07
2019-05-05T03:13:44.245Z,5.18
2019-05-05T03:16:17.945Z,5.18
2019-05-05T03:18:46.293Z,5.26
2019-05-05T03:21:14.878Z,5.26
2019-05-05T03:23:44.119Z,5.28
2019-05-05T03:26:14.055Z,5.29
2019-05-05T03:28:47.356Z,5.29
2019-05-05T03:31:16.303Z,5.29
2019-05-05T03:33:46.192Z,5.30
2019-05-05T03:36:14.603Z,5.33
2019-05-05T03:38:44.753Z,5.36
2019-05-05T03:41:14.671Z,5.35
2019-05-05T03:44:04.699Z,5.41
2019-05-05T03:46:34.460Z,5.41
2019-05-05T03:49:04.706Z,5.39
2019-05-05T03:51:34.506Z,5.40
2019-05-05T03:54:04.333Z,5.40
2019-05-05T03:56:34.747Z,5.45
2019-05-05T03:59:04.898Z,5.45
2019-05-05T04:01:37.007Z,5.47
2019-05-05T04:04:24.439Z,5.47
2019-05-05T04:06:56.843Z,5.45
2019-05-05T04:09:25.536Z,5.47
2019-05-05T04:11:54.140Z,5.47
2019-05-05T04:14:24.724Z,5.51
2019-05-05T04:16:54.923Z,5.51
2019-05-05T04:19:27.972Z,5.52
2019-05-05T04:21:56.340Z,5.50
2019-05-05T04:24:24.628Z,5.50
2019-05-05T04:26:54.578Z,5.51
2019-05-05T04:29:24.403Z,5.55
2019-05-05T04:31:54.069Z,5.54
2019-05-05T04:34:24.125Z,5.54
2019-05-05T04:36:54.512Z,5.50
2019-05-05T04:39:23.742Z,5.56
2019-05-05T04:41:54.350Z,5.55
2019-05-05T04:44:23.686Z,5.55
2019-05-05T04:46:54.662Z,5.55
2019-05-05T04:49:41.002Z,5.53
2019-05-05T04:52:11.021Z,5.53
2019-05-05T04:54:40.943Z,5.48
2019-05-05T04:57:09.990Z,5.50
2019-05-05T04:59:38.324Z,5.51
2019-05-05T05:02:08.323Z,5.55
2019-05-05T05:04:38.346Z,5.58
2019-05-05T05:07:07.686Z,5.57
2019-05-05T05:09:36.133Z,5.60
2019-05-05T05:12:04.500Z,5.64
2019-05-05T05:14:33.754Z,5.72
2019-05-05T05:17:03.808Z,5.72
2019-05-05T05:19:33.498Z,5.77
2019-05-05T05:22:04.266Z,5.77
2019-05-05T05:24:34.155Z,5.79
2019-05-05T05:27:01.960Z,5.82
2019-05-05T05:29:30.398Z,5.88
2019-05-05T05:31:58.734Z,5.89
2019-05-05T05:34:27.077Z,5.89
2019-05-05T05:36:58.094Z,5.96
2019-05-05T05:39:46.109Z,6.04
2019-05-05T05:42:14.414Z,6.04
2019-05-05T05:44:44.572Z,6.15
2019-05-05T05:47:17.190Z,6.15
2019-05-05T05:49:47.099Z,6.25
2019-05-05T05:52:19.054Z,6.32
2019-05-05T05:54:45.462Z,6.32
2019-05-05T05:57:13.769Z,6.40
2019-05-05T05:59:44.360Z,6.47
2019-05-05T06:02:15.216Z,6.52
2019-05-05T06:04:44.455Z,6.62
2019-05-05T06:07:14.306Z,6.62
2019-05-05T06:09:43.768Z,6.73
2019-05-05T06:12:14.151Z,6.73
2019-05-05T06:14:44.534Z,6.77
2019-05-05T06:17:13.487Z,6.91
2019-05-05T06:19:44.414Z,7.03
2019-05-05T06:22:13.926Z,7.13
2019-05-05T06:24:43.906Z,7.26
2019-05-05T06:27:14.108Z,7.36
2019-05-05T06:29:43.933Z,7.52
2019-05-05T06:32:14.404Z,7.68
2019-05-05T06:34:44.306Z,7.81
2019-05-05T06:37:14.496Z,7.93
2019-05-05T06:39:43.990Z,8.07
2019-05-05T06:42:23.717Z,8.21
2019-05-05T06:44:56.227Z,8.35
2019-05-05T06:47:26.078Z,8.42
2019-05-05T06:49:54.570Z,8.49
2019-05-05T06:52:24.856Z,8.60
2019-05-05T06:54:54.277Z,8.70
2019-05-05T06:57:24.069Z,8.87
2019-05-05T06:59:54.399Z,9.04
2019-05-05T07:02:23.797Z,9.15
2019-05-05T07:04:54.524Z,9.30
2019-05-05T07:07:23.641Z,9.29
2019-05-05T07:09:54.163Z,9.22
2019-05-05T07:12:24.106Z,9.24
2019-05-05T07:14:53.815Z,9.13
2019-05-05T07:17:23.945Z,9.24
2019-05-05T07:19:54.219Z,9.28
2019-05-05T07:22:24.058Z,9.31
2019-05-05T07:24:54.176Z,9.37
2019-05-05T07:27:24.353Z,9.44
2019-05-05T07:29:54.144Z,9.43
2019-05-05T07:32:24.560Z,9.48
2019-05-05T07:34:57.455Z,9.52
2019-05-05T07:37:26.555Z,9.67
2019-05-05T07:39:55.415Z,9.90
2019-05-05T07:42:24.426Z,10.05
2019-05-05T07:44:54.695Z,10.22
2019-05-05T07:47:23.798Z,10.29
2019-05-05T07:49:53.554Z,10.28
2019-05-05T07:52:23.749Z,10.29
2019-05-05T07:54:52.041Z,10.24
2019-05-05T07:57:20.316Z,10.10
2019-05-05T07:59:48.697Z,10.07
2019-05-05T08:02:17.049Z,10.01
2019-05-05T08:04:45.425Z,10.19
2019-05-05T08:07:14.785Z,10.40
2019-05-05T08:09:44.454Z,10.60
2019-05-05T08:12:13.855Z,10.66
2019-05-05T08:14:44.363Z,10.66
2019-05-05T08:17:16.714Z,10.65
2019-05-05T08:19:49.371Z,10.60
2019-05-05T08:22:17.730Z,10.50
2019-05-05T08:25:04.237Z,10.44
2019-05-05T08:27:49.426Z,10.35
2019-05-05T08:30:33.703Z,10.14
2019-05-05T08:33:04.538Z,10.12
2019-05-05T08:35:34.436Z,10.25
2019-05-05T08:38:04.543Z,10.51
2019-05-05T08:40:34.595Z,10.48
2019-05-05T08:43:04.714Z,10.55
2019-05-05T08:45:34.918Z,10.58
2019-05-05T08:48:04.874Z,10.62
2019-05-05T08:50:34.890Z,10.65
2019-05-05T08:53:04.503Z,10.73
2019-05-05T08:55:34.000Z,10.70
2019-05-05T08:58:04.559Z,10.76
2019-05-05T09:00:33.796Z,10.76
2019-05-05T09:03:03.839Z,10.81
2019-05-05T09:05:34.332Z,10.81
2019-05-05T09:08:04.529Z,10.98
2019-05-05T09:10:34.272Z,11.23
2019-05-05T09:13:03.736Z,11.57
2019-05-05T09:15:33.660Z,11.93
2019-05-05T09:18:02.199Z,11.99
2019-05-05T09:20:30.776Z,11.88
2019-05-05T09:22:59.110Z,11.85
2019-05-05T09:25:29.037Z,11.74
2019-05-05T09:28:07.705Z,11.69
2019-05-05T09:30:44.289Z,11.58
2019-05-05T09:33:14.258Z,11.47
2019-05-05T09:35:43.687Z,11.37
2019-05-05T09:38:14.509Z,11.24
2019-05-05T09:40:43.987Z,11.10
2019-05-05T09:43:14.816Z,11.16
2019-05-05T09:45:44.155Z,11.40
2019-05-05T09:48:13.921Z,11.75
2019-05-05T09:50:43.729Z,12.19
2019-05-05T09:53:14.363Z,12.56
2019-05-05T09:55:44.339Z,12.80
2019-05-05T09:58:13.739Z,13.06
2019-05-05T10:00:44.153Z,13.07
2019-05-05T10:03:14.314Z,12.81
2019-05-05T10:05:42.763Z,12.67
2019-05-05T10:08:11.577Z,12.46
2019-05-05T10:10:39.848Z,12.50
2019-05-05T10:13:08.200Z,12.63
2019-05-05T10:15:36.497Z,12.86
2019-05-05T10:18:04.809Z,12.61
2019-05-05T10:20:34.362Z,12.88
2019-05-05T10:23:02.957Z,13.21
2019-05-05T10:25:35.606Z,13.32
2019-05-05T10:28:04.699Z,12.90
2019-05-05T10:30:33.263Z,12.57
2019-05-05T10:33:03.616Z,12.40
2019-05-05T10:35:31.625Z,12.11
2019-05-05T10:37:59.959Z,11.93
2019-05-05T10:40:29.899Z,11.82
2019-05-05T10:42:59.001Z,11.71
2019-05-05T10:45:27.328Z,11.75
2019-05-05T10:47:55.634Z,11.83
2019-05-05T10:50:24.639Z,11.68
2019-05-05T10:52:53.708Z,11.62
2019-05-05T10:55:23.863Z,11.48
2019-05-05T10:57:54.293Z,11.51
2019-05-05T11:00:44.456Z,11.49
2019-05-05T11:03:14.965Z,11.44
2019-05-05T11:05:44.800Z,11.40
2019-05-05T11:08:13.735Z,11.48
2019-05-05T11:10:44.621Z,11.58
2019-05-05T11:13:12.265Z,11.61
2019-05-05T11:15:40.653Z,11.62
2019-05-05T11:18:08.976Z,11.65
2019-05-05T11:20:37.256Z,12.11
2019-05-05T11:23:05.732Z,12.71
2019-05-05T11:25:34.160Z,13.09
2019-05-05T11:28:04.246Z,13.26
2019-05-05T11:30:38.927Z,13.35
2019-05-05T11:33:11.932Z,13.27
2019-05-05T11:35:44.682Z,13.21
2019-05-05T11:38:16.021Z,13.12
2019-05-05T11:40:44.362Z,12.89
2019-05-05T11:43:14.366Z,12.71
2019-05-05T11:45:43.810Z,12.61
2019-05-05T11:48:14.810Z,12.42
2019-05-05T11:50:43.766Z,12.25
2019-05-05T11:53:14.588Z,11.99
2019-05-05T11:55:44.239Z,12.04
2019-05-05T11:58:14.301Z,12.15
2019-05-05T12:00:43.859Z,12.14
2019-05-05T12:03:14.370Z,12.19
2019-05-05T12:05:44.291Z,12.10
2019-05-05T12:08:14.464Z,12.04
2019-05-05T12:10:44.147Z,12.05
2019-05-05T12:13:14.685Z,12.07
2019-05-05T12:15:44.680Z,12.18
2019-05-05T12:18:14.391Z,12.28
2019-05-05T12:20:44.048Z,12.39
2019-05-05T12:23:12.559Z,12.45
2019-05-05T12:25:43.696Z,12.49
2019-05-05T12:28:25.795Z,12.45
2019-05-05T12:30:56.270Z,12.42
2019-05-05T12:33:24.714Z,12.50
2019-05-05T12:35:54.020Z,12.47
2019-05-05T12:38:24.112Z,12.59
2019-05-05T12:40:53.527Z,12.61
2019-05-05T12:43:21.927Z,12.71
2019-05-05T12:46:04.511Z,12.77
2019-05-05T12:48:34.768Z,12.75
2019-05-05T12:51:04.202Z,12.65
2019-05-05T12:53:32.714Z,12.49
2019-05-05T12:56:01.379Z,12.44
2019-05-05T12:58:33.573Z,12.50
2019-05-05T13:01:09.659Z,12.44
2019-05-05T13:03:38.119Z,12.27
2019-05-05T13:06:06.431Z,12.38
2019-05-05T13:08:34.732Z,12.45
2019-05-05T13:11:04.062Z,12.39
2019-05-05T13:13:34.406Z,12.48
2019-05-05T13:16:04.282Z,12.57
2019-05-05T13:18:33.951Z,12.57
2019-05-05T13:21:06.901Z,12.59
2019-05-05T13:23:36.824Z,12.57
2019-05-05T13:26:25.013Z,12.72
2019-05-05T13:28:54.250Z,12.78
2019-05-05T13:31:22.743Z,12.75
2019-05-05T13:33:51.025Z,12.73
2019-05-05T13:36:21.082Z,12.55
2019-05-05T13:38:52.003Z,12.65
2019-05-05T13:41:19.692Z,12.65
2019-05-05T13:43:48.066Z,12.68
2019-05-05T13:46:20.032Z,12.73
2019-05-05T13:48:48.016Z,12.65
2019-05-05T13:51:18.195Z,12.63
2019-05-05T13:53:46.495Z,12.64
2019-05-05T13:56:15.492Z,12.85
2019-05-05T13:58:43.903Z,13.06
2019-05-05T14:01:14.300Z,13.07
2019-05-05T14:03:42.179Z,13.14
2019-05-05T14:06:10.517Z,13.24
2019-05-05T14:08:38.859Z,13.24
2019-05-05T14:11:07.196Z,13.15
2019-05-05T14:13:35.610Z,13.09
2019-05-05T14:16:04.075Z,13.03
2019-05-05T14:18:32.953Z,12.97
2019-05-05T14:21:01.239Z,12.88
2019-05-05T14:23:31.041Z,12.81
2019-05-05T14:25:59.625Z,12.59
2019-05-05T14:28:27.902Z,12.41
2019-05-05T14:31:14.096Z,12.28
2019-05-05T14:33:54.235Z,12.09
2019-05-05T14:36:30.125Z,12.07
2019-05-05T14:38:59.303Z,12.02
2019-05-05T14:41:27.584Z,11.85
2019-05-05T14:43:56.591Z,11.59
2019-05-05T14:46:25.068Z,11.43
2019-05-05T14:48:53.628Z,11.34
2019-05-05T14:51:21.955Z,11.28
2019-05-05T14:53:50.317Z,11.31
2019-05-05T14:56:18.998Z,11.22
2019-05-05T14:58:47.296Z,11.32
2019-05-05T15:01:15.625Z,11.37
2019-05-05T15:03:44.589Z,11.59
2019-05-05T15:06:17.642Z,11.69
2019-05-05T15:08:51.994Z,11.94
2019-05-05T15:11:23.548Z,12.05
2019-05-05T15:13:53.981Z,12.00
2019-05-05T15:16:21.994Z,12.11
2019-05-05T15:18:50.371Z,12.15
2019-05-05T15:21:18.708Z,12.15
2019-05-05T15:23:47.019Z,12.02
2019-05-05T15:26:15.323Z,11.98
2019-05-05T15:28:47.992Z,11.90
2019-05-05T15:31:13.811Z,11.80
2019-05-05T15:33:44.028Z,11.86
2019-05-05T15:36:13.799Z,11.87
2019-05-05T15:38:45.420Z,11.85
2019-05-05T15:41:14.505Z,11.81
2019-05-05T15:43:44.105Z,12.00
2019-05-05T15:46:12.638Z,12.01
2019-05-05T15:48:40.917Z,11.96
2019-05-05T15:51:09.649Z,11.86
2019-05-05T15:53:38.027Z,11.80
2019-05-05T15:56:06.444Z,11.74
2019-05-05T15:58:34.763Z,11.67
2019-05-05T16:01:03.758Z,11.64
2019-05-05T16:03:32.248Z,11.56
2019-05-05T16:06:00.558Z,11.51
2019-05-05T16:08:29.025Z,11.37
2019-05-05T16:10:57.347Z,11.36
2019-05-05T16:13:25.681Z,11.24
2019-05-05T16:15:55.913Z,11.26
2019-05-05T16:18:25.946Z,11.26
2019-05-05T16:20:56.141Z,11.23
2019-05-05T16:23:26.085Z,11.20
2019-05-05T16:25:54.450Z,11.23
2019-05-05T16:28:24.960Z,11.00
2019-05-05T16:30:53.760Z,11.03
2019-05-05T16:33:24.197Z,11.04
2019-05-05T16:35:52.661Z,10.99
2019-05-05T16:38:20.947Z,10.89
2019-05-05T16:40:49.355Z,10.79
2019-05-05T16:43:17.799Z,10.85
2019-05-05T16:45:46.100Z,10.71
2019-05-05T16:48:14.987Z,10.74
2019-05-05T16:50:44.281Z,10.78
2019-05-05T16:53:30.805Z,10.77
2019-05-05T16:55:59.054Z,10.78
2019-05-05T16:58:27.348Z,10.70
2019-05-05T17:00:55.750Z,10.52
2019-05-05T17:03:24.072Z,10.47
2019-05-05T17:05:54.133Z,10.40
2019-05-05T17:08:24.465Z,10.28
2019-05-05T17:10:52.847Z,10.32
2019-05-05T17:13:24.158Z,10.25
2019-05-05T17:16:04.070Z,10.23
2019-05-05T17:18:36.102Z,10.25
2019-05-05T17:21:05.918Z,10.33
2019-05-05T17:23:34.778Z,10.30
2019-05-05T17:26:03.094Z,10.27
2019-05-05T17:28:33.386Z,10.29
2019-05-05T17:31:01.519Z,10.28
2019-05-05T17:33:29.834Z,10.29
2019-05-05T17:35:58.211Z,10.29
2019-05-05T17:38:26.587Z,10.29
2019-05-05T17:40:56.510Z,10.28
2019-05-05T17:43:38.298Z,10.25
2019-05-05T17:46:08.209Z,10.21
2019-05-05T17:48:38.153Z,10.12
2019-05-05T17:51:11.160Z,10.05
2019-05-05T17:53:54.614Z,10.07
2019-05-05T17:56:23.876Z,10.02
2019-05-05T17:58:53.814Z,10.02
2019-05-05T18:01:23.880Z,10.01
2019-05-05T18:03:54.523Z,9.93
2019-05-05T18:06:34.409Z,9.97
2019-05-05T18:09:16.350Z,9.91
2019-05-05T18:11:53.583Z,9.85
2019-05-05T18:14:24.048Z,9.84
2019-05-05T18:16:54.225Z,9.86
2019-05-05T18:19:24.662Z,9.94
2019-05-05T18:21:54.781Z,9.96
2019-05-05T18:24:24.236Z,9.96
2019-05-05T18:26:53.660Z,9.81
2019-05-05T18:29:24.148Z,9.63
2019-05-05T18:31:53.649Z,9.63
2019-05-05T18:34:23.601Z,9.58
2019-05-05T18:36:54.250Z,9.53
2019-05-05T18:39:22.283Z,9.50
2019-05-05T18:41:54.003Z,9.47
2019-05-05T18:44:30.433Z,9.35
2019-05-05T18:47:18.537Z,9.29
2019-05-05T18:49:48.163Z,9.27
2019-05-05T18:52:17.344Z,9.25
2019-05-05T18:54:45.694Z,9.19
2019-05-05T18:57:14.027Z,9.16
2019-05-05T18:59:44.508Z,9.07
2019-05-05T19:02:25.980Z,9.00
2019-05-05T19:05:08.260Z,8.92
2019-05-05T19:07:38.228Z,8.89
2019-05-05T19:10:07.474Z,8.87
2019-05-05T19:12:35.837Z,8.86
2019-05-05T19:15:05.780Z,8.77
2019-05-05T19:17:34.889Z,8.67
2019-05-05T19:20:06.184Z,8.69
2019-05-05T19:22:36.145Z,8.44
2019-05-05T19:25:15.207Z,8.45
2019-05-05T19:27:45.114Z,8.36
2019-05-05T19:30:14.406Z,8.35
2019-05-05T19:32:43.685Z,8.30
2019-05-05T19:35:12.313Z,8.30
2019-05-05T19:37:40.712Z,8.27
2019-05-05T19:40:09.057Z,8.25
2019-05-05T19:42:37.330Z,8.28
2019-05-05T19:45:06.800Z,8.29
2019-05-05T19:47:35.109Z,8.29
2019-05-05T19:50:06.711Z,8.26
2019-05-05T19:52:35.027Z,8.26
2019-05-05T19:55:04.503Z,8.24
2019-05-05T19:57:35.834Z,8.26
2019-05-05T20:00:04.151Z,8.24
2019-05-05T20:02:34.082Z,8.28
2019-05-05T20:05:04.320Z,8.19
2019-05-05T20:07:33.677Z,8.19
2019-05-05T20:10:04.081Z,8.21
2019-05-05T20:12:33.542Z,8.21
2019-05-05T20:15:04.074Z,8.24
2019-05-05T20:17:37.119Z,8.25
2019-05-05T20:20:06.963Z,8.27
2019-05-05T20:22:35.328Z,8.24
2019-05-05T20:25:07.699Z,8.21
2019-05-05T20:27:36.035Z,8.19
2019-05-05T20:30:08.937Z,8.15
2019-05-05T20:32:41.793Z,8.16
2019-05-05T20:35:14.913Z,8.16
2019-05-05T20:37:47.629Z,8.19
2019-05-05T20:40:17.608Z,8.19
2019-05-05T20:42:45.921Z,8.18
2019-05-05T20:45:15.835Z,8.20
2019-05-05T20:47:44.134Z,8.15
2019-05-05T20:50:12.441Z,8.12
2019-05-05T20:52:40.754Z,8.11
2019-05-05T20:55:09.078Z,8.11
2019-05-05T20:57:37.428Z,8.13
2019-05-05T21:00:05.797Z,8.11
2019-05-05T21:02:34.154Z,8.12
2019-05-05T21:05:04.007Z,8.10
2019-05-05T21:07:34.622Z,8.11
2019-05-05T21:10:04.496Z,8.12
2019-05-05T21:12:41.931Z,8.08
2019-05-05T21:15:04.879Z,8.07
2019-05-05T21:17:33.851Z,8.08
2019-05-05T21:20:04.171Z,8.05
2019-05-05T21:22:48.895Z,8.03
2019-05-05T21:25:27.596Z,8.02
2019-05-05T21:27:56.151Z,7.99
2019-05-05T21:30:24.499Z,7.96
2019-05-05T21:32:54.615Z,7.93
2019-05-05T21:35:23.984Z,7.91
2019-05-05T21:37:54.270Z,7.92
2019-05-05T21:40:25.061Z,7.91
2019-05-05T21:42:54.171Z,7.91
2019-05-05T21:45:22.769Z,7.90
2019-05-05T21:47:51.058Z,7.87
2019-05-05T21:50:37.377Z,7.86
2019-05-05T21:53:24.677Z,7.83
2019-05-05T21:56:11.222Z,7.82
2019-05-05T21:58:44.058Z,7.81
2019-05-05T22:01:14.972Z,7.79
2019-05-05T22:03:44.376Z,7.76
2019-05-05T22:06:14.650Z,7.75
2019-05-05T22:08:43.026Z,7.74
2019-05-05T22:11:11.367Z,7.72
2019-05-05T22:13:39.643Z,7.71
2019-05-05T22:16:08.016Z,7.68
2019-05-05T22:18:36.899Z,7.65
2019-05-05T22:21:19.180Z,7.63
2019-05-05T22:23:49.226Z,7.60
2019-05-05T22:26:17.501Z,7.53
2019-05-05T22:28:45.819Z,7.50
2019-05-05T22:31:14.299Z,7.50
2019-05-05T22:33:44.621Z,7.49
2019-05-05T22:36:14.097Z,7.48
2019-05-05T22:38:44.476Z,7.44
2019-05-05T22:41:13.289Z,7.42
2019-05-05T22:43:44.279Z,7.42
2019-05-05T22:46:14.158Z,7.43
2019-05-05T22:48:44.041Z,7.43
2019-05-05T22:51:14.419Z,7.43
2019-05-05T22:53:44.014Z,7.42
2019-05-05T22:56:14.636Z,7.38
2019-05-05T22:58:43.896Z,7.36
2019-05-05T23:01:13.601Z,7.33
2019-05-05T23:03:43.728Z,7.30
2019-05-05T23:06:13.853Z,7.30
2019-05-05T23:08:45.215Z,7.27
2019-05-05T23:11:14.539Z,7.22
2019-05-05T23:13:44.381Z,7.22
2019-05-05T23:16:14.699Z,7.21
2019-05-05T23:18:44.268Z,7.21
2019-05-05T23:21:24.761Z,7.21
2019-05-05T23:24:11.041Z,7.19
2019-05-05T23:26:40.962Z,7.19
2019-05-05T23:29:09.363Z,7.16
2019-05-05T23:31:37.691Z,7.12
2019-05-05T23:34:05.961Z,7.10
2019-05-05T23:36:34.253Z,7.11
2019-05-05T23:39:04.229Z,7.11
2019-05-05T23:41:34.700Z,7.10
2019-05-05T23:44:03.650Z,7.10
2019-05-05T23:46:34.658Z,7.06
2019-05-05T23:49:04.118Z,7.01
2019-05-05T23:51:34.739Z,7.00
2019-05-05T23:54:04.301Z,6.98
2019-05-05T23:56:34.739Z,6.98
2019-05-05T23:59:04.266Z,6.95
